Time;durP1;ratioP1;P1;durP2;ratioP2;P2;SDS_P1;SDS_P2;PMS_P1;PMS_P2;Temp;Humidity;BMP_temperature;BMP_pressure;BME280_temperature;BME280_humidity;BME280_pressure;Samples;Min_cycle;Max_cycle;Signal;HPM_P1;HPM_P2
2022/06/02 00:02:13;;;;;;;2.15;0.80;;;;;;;;;;5063786;28;20201;-69
2022/06/02 00:04:45;;;;;;;3.15;0.88;;;;;;;;;;5063547;28;20212;-69
2022/06/02 00:07:12;;;;;;;1.75;0.60;;;;;;;;;;5063333;28;20185;-69
2022/06/02 00:09:44;;;;;;;1.38;0.80;;;;;;;;;;5063945;28;20220;-69
2022/06/02 00:12:12;;;;;;;0.60;0.60;;;;;;;;;;5063431;28;20216;-68
2022/06/02 00:14:46;;;;;;;0.82;0.82;;;;;;;;;;5063690;28;20201;-69
2022/06/02 00:17:18;;;;;;;0.93;0.60;;;;;;;;;;5063292;28;20200;-69
2022/06/02 00:19:47;;;;;;;0.88;0.70;;;;;;;;;;5063286;28;20201;-69
2022/06/02 00:22:16;;;;;;;2.78;0.80;;;;;;;;;;5063238;28;20200;-69
2022/06/02 00:24:45;;;;;;;2.42;0.80;;;;;;;;;;5063658;28;20201;-68
2022/06/02 00:27:17;;;;;;;1.25;0.82;;;;;;;;;;5063190;28;20296;-68
2022/06/02 00:29:46;;;;;;;0.60;0.60;;;;;;;;;;5063229;28;20251;-69
2022/06/02 00:32:14;;;;;;;3.55;0.70;;;;;;;;;;5062796;28;20528;-69
2022/06/02 00:34:45;;;;;;;3.10;0.70;;;;;;;;;;5062863;28;20200;-68
2022/06/02 00:37:19;;;;;;;2.75;0.68;;;;;;;;;;5062709;28;20223;-69
2022/06/02 00:39:46;;;;;;;1.63;0.60;;;;;;;;;;5063137;28;20197;-69
2022/06/02 00:42:18;;;;;;;2.60;0.70;;;;;;;;;;5062687;28;20205;-69
2022/06/02 00:44:48;;;;;;;0.70;0.70;;;;;;;;;;5061975;28;20425;-69
2022/06/02 00:47:28;;;;;;;0.93;0.70;;;;;;;;;;5062740;28;20504;-69
2022/06/02 00:50:01;;;;;;;2.38;0.70;;;;;;;;;;5062775;28;20268;-69
2022/06/02 00:52:30;;;;;;;2.05;0.80;;;;;;;;;;5062570;28;20536;-69
2022/06/02 00:57:57;;;;;;;0.77;0.63;;;;;;;;;;5062406;28;20191;-69
2022/06/02 01:00:25;;;;;;;0.75;0.65;;;;;;;;;;5062604;28;20196;-69
2022/06/02 01:02:53;;;;;;;3.20;0.60;;;;;;;;;;5062680;28;20193;-69
2022/06/02 01:05:29;;;;;;;0.73;0.73;;;;;;;;;;5062384;28;20261;-69
2022/06/02 01:08:00;;;;;;;1.10;0.70;;;;;;;;;;5062560;28;20204;-69
2022/06/02 01:10:37;;;;;;;0.70;0.70;;;;;;;;;;5062746;28;20231;-68
2022/06/02 01:13:21;;;;;;;0.80;0.80;;;;;;;;;;5062510;28;20291;-69
2022/06/02 01:15:53;;;;;;;2.20;0.60;;;;;;;;;;5062081;28;20193;-69
2022/06/02 01:18:25;;;;;;;0.70;0.70;;;;;;;;;;5062197;28;20516;-69
2022/06/02 01:20:57;;;;;;;1.35;0.50;;;;;;;;;;5062538;28;20204;-69
2022/06/02 01:23:35;;;;;;;0.60;0.60;;;;;;;;;;5062580;28;20193;-69
2022/06/02 01:26:17;;;;;;;0.70;0.70;;;;;;;;;;5062157;28;20393;-69
2022/06/02 01:28:49;;;;;;;1.10;0.63;;;;;;;;;;5062202;28;20204;-69
2022/06/02 01:31:22;;;;;;;0.88;0.80;;;;;;;;;;5062238;28;20197;-69
2022/06/02 01:33:53;;;;;;;0.60;0.60;;;;;;;;;;5062324;28;20201;-68
2022/06/02 01:36:23;;;;;;;2.55;0.73;;;;;;;;;;5062010;28;20201;-68
2022/06/02 01:38:55;;;;;;;0.85;0.70;;;;;;;;;;5062236;28;20204;-69
2022/06/02 01:41:25;;;;;;;1.85;0.70;;;;;;;;;;5062428;28;20250;-69
2022/06/02 01:43:57;;;;;;;1.27;0.50;;;;;;;;;;5062500;28;20243;-69
2022/06/02 01:46:32;;;;;;;1.30;0.50;;;;;;;;;;5061339;28;20197;-69
2022/06/02 01:49:03;;;;;;;2.80;0.70;;;;;;;;;;5062351;28;20200;-69
2022/06/02 01:51:34;;;;;;;0.65;0.57;;;;;;;;;;5062198;28;20197;-69
2022/06/02 01:54:06;;;;;;;1.27;0.70;;;;;;;;;;5062324;28;20251;-69
2022/06/02 01:56:38;;;;;;;0.57;0.57;;;;;;;;;;5065869;28;20200;-68
2022/06/02 01:59:14;;;;;;;1.48;0.50;;;;;;;;;;5065960;28;20223;-69
2022/06/02 02:01:44;;;;;;;3.75;0.60;;;;;;;;;;5065981;28;20197;-69
2022/06/02 02:04:18;;;;;;;0.88;0.60;;;;;;;;;;5065862;28;20220;-69
2022/06/02 02:06:49;;;;;;;1.25;0.60;;;;;;;;;;5065750;28;20536;-69
2022/06/02 02:09:20;;;;;;;1.05;0.60;;;;;;;;;;5065978;28;20192;-69
2022/06/02 02:11:49;;;;;;;1.35;0.77;;;;;;;;;;5065566;28;20441;-69
2022/06/02 02:14:22;;;;;;;0.68;0.65;;;;;;;;;;5065864;28;20197;-69
2022/06/02 02:16:52;;;;;;;1.48;0.70;;;;;;;;;;5065516;28;20197;-69
2022/06/02 02:19:24;;;;;;;3.88;0.63;;;;;;;;;;5065548;28;20235;-69
2022/06/02 02:21:56;;;;;;;1.67;0.63;;;;;;;;;;5065691;28;20208;-69
2022/06/02 02:24:28;;;;;;;0.60;0.60;;;;;;;;;;5065809;28;20485;-69
2022/06/02 02:26:58;;;;;;;0.68;0.68;;;;;;;;;;5065147;28;20197;-68
2022/06/02 02:29:31;;;;;;;1.02;0.63;;;;;;;;;;5065518;28;20197;-68
2022/06/02 02:32:05;;;;;;;2.45;0.70;;;;;;;;;;5065286;28;20540;-68
2022/06/02 02:34:36;;;;;;;1.63;0.57;;;;;;;;;;5065235;28;20527;-68
2022/06/02 02:37:04;;;;;;;1.70;0.70;;;;;;;;;;5065280;28;20197;-69
2022/06/02 02:39:32;;;;;;;0.50;0.50;;;;;;;;;;5065494;28;20392;-69
2022/06/02 02:42:00;;;;;;;2.00;0.70;;;;;;;;;;5065228;28;20193;-69
2022/06/02 02:44:28;;;;;;;1.67;0.80;;;;;;;;;;5065363;28;20205;-69
2022/06/02 02:46:58;;;;;;;0.63;0.63;;;;;;;;;;5064664;28;20487;-69
2022/06/02 02:49:29;;;;;;;0.85;0.85;;;;;;;;;;5065260;28;20243;-69
2022/06/02 02:51:59;;;;;;;2.85;0.70;;;;;;;;;;5065047;28;20213;-69
2022/06/02 02:54:28;;;;;;;0.88;0.70;;;;;;;;;;5065350;28;20197;-69
2022/06/02 02:56:58;;;;;;;0.80;0.80;;;;;;;;;;5064606;28;20519;-68
2022/06/02 02:59:28;;;;;;;0.85;0.85;;;;;;;;;;5064905;28;20209;-69
2022/06/02 03:01:58;;;;;;;1.00;0.70;;;;;;;;;;5064721;28;20201;-69
2022/06/02 03:04:42;;;;;;;1.25;0.70;;;;;;;;;;5065048;28;20209;-69
2022/06/02 03:07:10;;;;;;;1.55;0.70;;;;;;;;;;5063599;28;20251;-69
2022/06/02 03:09:41;;;;;;;0.80;0.80;;;;;;;;;;5064894;28;20197;-69
2022/06/02 03:12:09;;;;;;;0.88;0.60;;;;;;;;;;5064424;28;20217;-69
2022/06/02 03:14:51;;;;;;;2.97;0.60;;;;;;;;;;5064710;28;20204;-69
2022/06/02 03:17:23;;;;;;;3.70;0.73;;;;;;;;;;5062904;28;20430;-69
2022/06/02 03:19:56;;;;;;;0.90;0.70;;;;;;;;;;5064549;28;20505;-69
2022/06/02 03:22:29;;;;;;;2.20;0.90;;;;;;;;;;5064504;28;20197;-69
2022/06/02 03:25:00;;;;;;;0.63;0.63;;;;;;;;;;5064601;28;20197;-69
2022/06/02 03:27:37;;;;;;;0.90;0.90;;;;;;;;;;5064124;28;20197;-69
2022/06/02 03:30:10;;;;;;;0.70;0.70;;;;;;;;;;5064431;28;20243;-69
2022/06/02 03:32:41;;;;;;;0.98;0.73;;;;;;;;;;5064165;28;20221;-69
2022/06/02 03:35:13;;;;;;;1.02;0.85;;;;;;;;;;5064156;28;20448;-69
2022/06/02 03:37:46;;;;;;;2.83;0.80;;;;;;;;;;5064085;28;20235;-69
2022/06/02 03:40:27;;;;;;;2.45;1.15;;;;;;;;;;5064115;28;20287;-69
2022/06/02 03:42:58;;;;;;;1.30;1.20;;;;;;;;;;5064160;28;20234;-68
2022/06/02 03:45:30;;;;;;;1.00;1.00;;;;;;;;;;5063917;28;20204;-69
2022/06/02 03:48:26;;;;;;;3.20;1.00;;;;;;;;;;5063726;28;20291;-69
2022/06/02 03:50:55;;;;;;;0.80;0.80;;;;;;;;;;5022242;28;20295;-68
2022/06/02 03:53:39;;;;;;;2.28;0.80;;;;;;;;;;5054287;28;20232;-69
2022/06/02 03:56:15;;;;;;;1.20;0.90;;;;;;;;;;5063276;28;20212;-69
2022/06/02 03:58:49;;;;;;;2.13;0.73;;;;;;;;;;5064067;28;20235;-69
2022/06/02 04:01:19;;;;;;;2.22;1.02;;;;;;;;;;5063740;28;20202;-69
2022/06/02 04:03:51;;;;;;;1.02;0.95;;;;;;;;;;5063742;28;20465;-69
2022/06/02 04:06:24;;;;;;;1.05;1.02;;;;;;;;;;5063687;28;20597;-69
2022/06/02 04:09:02;;;;;;;1.65;1.00;;;;;;;;;;5063833;28;20243;-69
2022/06/02 04:14:25;;;;;;;1.27;1.20;;;;;;;;;;5063174;28;20659;-69
2022/06/02 04:16:55;;;;;;;1.30;1.20;;;;;;;;;;5063340;28;20191;-68
2022/06/02 04:22:20;;;;;;;1.00;1.00;;;;;;;;;;5063323;28;20196;-68
2022/06/02 04:24:52;;;;;;;1.00;1.00;;;;;;;;;;5063235;28;20197;-68
2022/06/02 04:27:23;;;;;;;1.02;0.90;;;;;;;;;;5062941;28;20209;-68
2022/06/02 04:29:55;;;;;;;1.40;1.02;;;;;;;;;;5063437;28;20197;-68
2022/06/02 04:32:27;;;;;;;1.25;0.90;;;;;;;;;;5063047;28;20466;-68
2022/06/02 04:34:56;;;;;;;0.95;0.95;;;;;;;;;;5063034;28;20197;-68
2022/06/02 04:37:30;;;;;;;1.67;1.13;;;;;;;;;;5062803;28;20397;-68
2022/06/02 04:40:01;;;;;;;1.15;1.10;;;;;;;;;;5063188;28;20202;-68
2022/06/02 04:42:33;;;;;;;1.45;1.00;;;;;;;;;;5063101;28;20189;-68
2022/06/02 04:45:05;;;;;;;1.65;1.10;;;;;;;;;;5063071;28;20204;-68
2022/06/02 04:47:37;;;;;;;1.73;0.95;;;;;;;;;;5062818;28;20197;-68
2022/06/02 04:50:07;;;;;;;1.05;1.00;;;;;;;;;;5062706;28;20399;-68
2022/06/02 04:52:38;;;;;;;1.27;1.13;;;;;;;;;;5062670;28;20251;-68
2022/06/02 04:55:11;;;;;;;1.08;1.08;;;;;;;;;;5062977;28;20203;-68
2022/06/02 04:57:42;;;;;;;4.47;1.45;;;;;;;;;;5062539;28;20197;-68
2022/06/02 05:00:14;;;;;;;2.38;1.35;;;;;;;;;;5062646;28;20197;-68
2022/06/02 05:02:44;;;;;;;1.75;1.40;;;;;;;;;;5062681;28;20201;-68
2022/06/02 05:05:15;;;;;;;1.42;1.42;;;;;;;;;;5062428;28;20225;-68
2022/06/02 05:07:55;;;;;;;1.42;1.33;;;;;;;;;;5062362;28;20197;-68
2022/06/02 05:10:24;;;;;;;2.47;1.20;;;;;;;;;;5062415;28;20504;-68
2022/06/02 05:12:56;;;;;;;3.00;1.30;;;;;;;;;;5062289;28;20216;-68
2022/06/02 05:15:34;;;;;;;3.42;1.35;;;;;;;;;;5062589;28;20519;-68
2022/06/02 05:18:14;;;;;;;1.35;1.25;;;;;;;;;;5062311;28;20235;-68
2022/06/02 05:20:53;;;;;;;4.50;1.40;;;;;;;;;;5062388;28;20201;-68
2022/06/02 05:23:27;;;;;;;1.50;1.38;;;;;;;;;;5062263;28;20200;-68
2022/06/02 05:26:21;;;;;;;1.35;1.25;;;;;;;;;;5062419;28;20520;-68
2022/06/02 05:29:08;;;;;;;1.20;1.10;;;;;;;;;;5061892;28;20204;-68
2022/06/02 05:32:05;;;;;;;1.45;1.00;;;;;;;;;;5058042;28;20212;-68
2022/06/02 05:34:41;;;;;;;2.45;1.30;;;;;;;;;;5061675;28;20593;-68
2022/06/02 05:37:13;;;;;;;1.75;0.90;;;;;;;;;;5062086;28;20233;-68
2022/06/02 05:39:48;;;;;;;2.25;0.90;;;;;;;;;;5061773;28;20197;-68
2022/06/02 05:42:23;;;;;;;1.08;1.00;;;;;;;;;;5061590;28;20197;-68
2022/06/02 05:44:58;;;;;;;1.23;1.05;;;;;;;;;;5061717;28;20264;-68
2022/06/02 05:47:33;;;;;;;1.40;1.00;;;;;;;;;;5061997;28;20419;-68
2022/06/02 05:50:06;;;;;;;2.38;1.20;;;;;;;;;;5061701;28;20196;-68
2022/06/02 05:52:39;;;;;;;1.45;1.08;;;;;;;;;;5061287;28;20197;-68
2022/06/02 05:55:16;;;;;;;0.90;0.90;;;;;;;;;;5061674;28;20519;-68
2022/06/02 05:57:46;;;;;;;2.08;1.05;;;;;;;;;;5061426;28;20204;-68
2022/06/02 06:00:18;;;;;;;6.60;1.30;;;;;;;;;;5061428;28;20220;-68
2022/06/02 06:02:57;;;;;;;2.35;1.02;;;;;;;;;;5048664;28;20256;-68
2022/06/02 06:05:26;;;;;;;1.20;1.10;;;;;;;;;;5052932;28;20243;-68
2022/06/02 06:08:25;;;;;;;1.10;1.02;;;;;;;;;;5051121;28;20217;-68
2022/06/02 06:10:55;;;;;;;3.60;0.90;;;;;;;;;;5000319;28;20506;-59
2022/06/02 06:13:37;;;;;;;0.90;0.90;;;;;;;;;;5001447;28;20214;-59
2022/06/02 06:16:07;;;;;;;1.13;0.88;;;;;;;;;;5019005;28;20209;-59
2022/06/02 06:18:44;;;;;;;1.33;1.13;;;;;;;;;;5035449;28;20300;-59
2022/06/02 06:21:18;;;;;;;1.15;1.15;;;;;;;;;;5039104;28;20211;-59
2022/06/02 06:24:08;;;;;;;2.15;1.00;;;;;;;;;;5050453;28;20201;-60
2022/06/02 06:26:38;;;;;;;0.88;0.88;;;;;;;;;;5044654;28;20216;-60
2022/06/02 06:29:12;;;;;;;1.20;1.10;;;;;;;;;;5035546;28;20214;-60
2022/06/02 06:31:45;;;;;;;3.13;1.20;;;;;;;;;;5035286;28;20209;-60
2022/06/02 06:34:17;;;;;;;2.42;1.13;;;;;;;;;;5034866;28;20572;-60
2022/06/02 06:36:56;;;;;;;1.85;1.13;;;;;;;;;;5035148;28;20236;-61
2022/06/02 06:39:29;;;;;;;2.50;1.38;;;;;;;;;;5035424;28;20256;-61
2022/06/02 06:42:13;;;;;;;1.05;1.00;;;;;;;;;;5036203;28;20248;-61
2022/06/02 06:44:43;;;;;;;3.90;1.33;;;;;;;;;;5038149;28;20389;-61
2022/06/02 06:47:13;;;;;;;2.63;1.10;;;;;;;;;;5058736;28;20343;-61
2022/06/02 06:49:54;;;;;;;1.33;1.02;;;;;;;;;;5058905;28;20216;-60
2022/06/02 06:52:30;;;;;;;1.98;0.93;;;;;;;;;;5058567;28;20209;-60
2022/06/02 06:55:00;;;;;;;1.60;0.80;;;;;;;;;;5058253;28;20278;-60
2022/06/02 06:57:28;;;;;;;1.52;1.05;;;;;;;;;;5058240;28;20519;-59
2022/06/02 06:59:58;;;;;;;4.45;0.90;;;;;;;;;;5058692;28;20209;-59
2022/06/02 07:02:28;;;;;;;1.00;0.90;;;;;;;;;;5058273;28;20212;-60
2022/06/02 07:05:01;;;;;;;0.90;0.90;;;;;;;;;;5057969;28;20228;-59
2022/06/02 07:07:39;;;;;;;1.70;1.10;;;;;;;;;;5058014;28;20201;-60
2022/06/02 07:10:09;;;;;;;2.53;0.93;;;;;;;;;;5058350;28;20201;-60
2022/06/02 07:12:52;;;;;;;2.10;1.00;;;;;;;;;;5058033;28;20517;-60
2022/06/02 07:15:25;;;;;;;1.10;1.00;;;;;;;;;;5057595;28;20209;-60
2022/06/02 07:17:53;;;;;;;1.15;0.60;;;;;;;;;;5057710;28;20406;-60
2022/06/02 07:20:23;;;;;;;0.75;0.70;;;;;;;;;;5057856;28;20213;-61
2022/06/02 07:22:55;;;;;;;1.48;0.82;;;;;;;;;;5057608;28;20220;-61
2022/06/02 07:25:23;;;;;;;3.33;1.00;;;;;;;;;;5057537;28;20232;-60
2022/06/02 07:27:51;;;;;;;0.98;0.93;;;;;;;;;;5057957;28;20382;-60
2022/06/02 07:30:25;;;;;;;1.38;0.73;;;;;;;;;;5057763;28;20251;-60
2022/06/02 07:33:04;;;;;;;4.53;0.98;;;;;;;;;;5057640;28;20552;-60
2022/06/02 07:35:46;;;;;;;0.80;0.80;;;;;;;;;;5057528;28;20204;-59
2022/06/02 07:38:19;;;;;;;0.80;0.80;;;;;;;;;;5057424;28;20297;-60
2022/06/02 07:40:55;;;;;;;1.48;0.80;;;;;;;;;;5057697;28;20215;-59
2022/06/02 07:43:29;;;;;;;1.48;0.75;;;;;;;;;;5057149;28;20205;-58
2022/06/02 07:45:58;;;;;;;1.20;1.10;;;;;;;;;;5057655;28;20216;-58
2022/06/02 07:48:48;;;;;;;0.98;0.90;;;;;;;;;;5057614;28;20224;-59
2022/06/02 07:51:18;;;;;;;0.88;0.88;;;;;;;;;;5057341;28;20213;-58
2022/06/02 07:54:05;;;;;;;1.13;0.75;;;;;;;;;;5056608;28;20239;-59
2022/06/02 07:56:34;;;;;;;2.60;0.70;;;;;;;;;;5057807;28;20395;-59
2022/06/02 07:59:07;;;;;;;1.20;0.70;;;;;;;;;;5057718;28;20209;-59
2022/06/02 08:01:55;;;;;;;1.55;0.70;;;;;;;;;;5057735;28;20209;-59
2022/06/02 08:04:28;;;;;;;2.15;0.80;;;;;;;;;;5057007;28;20208;-60
2022/06/02 08:07:00;;;;;;;0.70;0.70;;;;;;;;;;5056781;28;20232;-60
2022/06/02 08:09:33;;;;;;;4.47;0.75;;;;;;;;;;5057179;28;20205;-59
2022/06/02 08:12:03;;;;;;;0.80;0.80;;;;;;;;;;5057338;28;20474;-61
2022/06/02 08:14:34;;;;;;;2.67;0.88;;;;;;;;;;5056388;28;20528;-59
2022/06/02 08:17:01;;;;;;;1.40;0.93;;;;;;;;;;5052676;28;20591;-59
2022/06/02 08:19:35;;;;;;;1.50;0.80;;;;;;;;;;5037581;28;20308;-60
2022/06/02 08:22:05;;;;;;;1.23;0.82;;;;;;;;;;5036824;28;20216;-60
2022/06/02 08:24:49;;;;;;;2.75;1.00;;;;;;;;;;5036788;28;20252;-59
2022/06/02 08:27:27;;;;;;;0.82;0.80;;;;;;;;;;5029980;28;20209;-59
2022/06/02 08:29:58;;;;;;;1.88;1.00;;;;;;;;;;5037273;28;20209;-59
2022/06/02 08:32:31;;;;;;;5.47;0.90;;;;;;;;;;5037305;28;20206;-60
2022/06/02 08:35:04;;;;;;;2.53;0.70;;;;;;;;;;5036551;28;20236;-59
2022/06/02 08:37:38;;;;;;;0.73;0.60;;;;;;;;;;5036420;28;20217;-58
2022/06/02 08:40:14;;;;;;;0.80;0.80;;;;;;;;;;5056046;28;20525;-58
2022/06/02 08:42:54;;;;;;;1.20;0.80;;;;;;;;;;5056444;28;20215;-59
2022/06/02 08:45:34;;;;;;;3.03;0.73;;;;;;;;;;5056081;28;20458;-60
2022/06/02 08:48:25;;;;;;;2.05;1.00;;;;;;;;;;5056151;28;20246;-59
2022/06/02 08:51:15;;;;;;;0.90;0.63;;;;;;;;;;5056788;28;20223;-59
2022/06/02 08:53:56;;;;;;;0.65;0.65;;;;;;;;;;5055666;28;20228;-60
2022/06/02 08:56:42;;;;;;;0.95;0.60;;;;;;;;;;5054291;28;20209;-61
2022/06/02 08:59:34;;;;;;;3.13;2.28;;;;;;;;;;5056725;28;20232;-58
2022/06/02 09:02:21;;;;;;;6.53;4.25;;;;;;;;;;5056732;28;20254;-60
2022/06/02 09:05:12;;;;;;;2.03;1.02;;;;;;;;;;5038313;28;20221;-59
2022/06/02 09:07:57;;;;;;;1.30;1.20;;;;;;;;;;5017942;28;20573;-60
2022/06/02 09:10:32;;;;;;;1.23;1.20;;;;;;;;;;5056560;28;20208;-59
2022/06/02 09:13:14;;;;;;;2.95;2.75;;;;;;;;;;5056550;28;20453;-59
2022/06/02 09:15:47;;;;;;;1.48;1.20;;;;;;;;;;5033562;28;20229;-60
2022/06/02 09:18:18;;;;;;;5.00;3.58;;;;;;;;;;5056489;28;20284;-61
2022/06/02 09:20:49;;;;;;;1.52;0.93;;;;;;;;;;5056846;28;20215;-61
2022/06/02 09:23:29;;;;;;;5.80;4.97;;;;;;;;;;5056610;28;20217;-60
2022/06/02 09:25:59;;;;;;;1.55;1.50;;;;;;;;;;5056436;28;20208;-60
2022/06/02 09:28:32;;;;;;;3.92;1.08;;;;;;;;;;5056368;28;20540;-60
2022/06/02 09:31:14;;;;;;;4.20;3.72;;;;;;;;;;5056508;28;20219;-60
2022/06/02 09:33:55;;;;;;;2.47;1.55;;;;;;;;;;5056215;28;20520;-60
2022/06/02 09:36:52;;;;;;;3.15;1.00;;;;;;;;;;5047057;28;20262;-59
2022/06/02 09:39:26;;;;;;;3.33;2.92;;;;;;;;;;5014122;28;20217;-61
2022/06/02 09:41:59;;;;;;;4.97;2.60;;;;;;;;;;5048186;28;20531;-61
2022/06/02 09:44:27;;;;;;;5.90;2.97;;;;;;;;;;5055856;28;20247;-60
2022/06/02 09:47:26;;;;;;;1.63;0.80;;;;;;;;;;5055889;28;20385;-60
2022/06/02 09:50:03;;;;;;;3.10;0.80;;;;;;;;;;5056333;28;20208;-60
2022/06/02 09:52:37;;;;;;;2.97;0.88;;;;;;;;;;5056097;28;20536;-60
2022/06/02 09:55:07;;;;;;;2.88;0.70;;;;;;;;;;5055914;28;20225;-59
2022/06/02 09:57:56;;;;;;;1.70;1.60;;;;;;;;;;5055925;28;20205;-60
2022/06/02 10:00:30;;;;;;;0.60;0.60;;;;;;;;;;5056127;28;20443;-60
2022/06/02 10:03:05;;;;;;;0.75;0.65;;;;;;;;;;5055744;28;20250;-60
2022/06/02 10:05:40;;;;;;;0.70;0.60;;;;;;;;;;5055889;28;20240;-60
2022/06/02 10:08:13;;;;;;;0.88;0.70;;;;;;;;;;5056272;28;20216;-60
2022/06/02 10:10:45;;;;;;;2.08;1.85;;;;;;;;;;5056097;28;20227;-60
2022/06/02 10:13:29;;;;;;;7.05;5.43;;;;;;;;;;5055514;28;20216;-60
2022/06/02 10:16:18;;;;;;;1.48;1.40;;;;;;;;;;5057045;28;20258;-60
2022/06/02 10:18:53;;;;;;;4.05;0.80;;;;;;;;;;5059841;28;20212;-60
2022/06/02 10:21:38;;;;;;;2.92;0.60;;;;;;;;;;5059657;28;20212;-60
2022/06/02 10:24:24;;;;;;;1.42;1.10;;;;;;;;;;5059070;28;20275;-59
2022/06/02 10:27:02;;;;;;;4.55;0.70;;;;;;;;;;5059114;28;20215;-59
2022/06/02 10:29:55;;;;;;;1.65;0.75;;;;;;;;;;5059401;28;20208;-60
2022/06/02 10:32:46;;;;;;;2.05;0.60;;;;;;;;;;5021328;28;20206;-60
2022/06/02 10:35:26;;;;;;;2.03;1.75;;;;;;;;;;5059166;28;20236;-60
2022/06/02 10:38:01;;;;;;;1.13;0.95;;;;;;;;;;5058344;28;20254;-60
2022/06/02 10:40:42;;;;;;;2.33;2.13;;;;;;;;;;5059679;28;20208;-59
2022/06/02 10:43:19;;;;;;;0.70;0.70;;;;;;;;;;5057500;28;20414;-60
2022/06/02 10:46:02;;;;;;;1.83;0.90;;;;;;;;;;5059104;28;20227;-58
2022/06/02 10:48:44;;;;;;;2.22;1.02;;;;;;;;;;5059241;28;20215;-59
2022/06/02 10:51:20;;;;;;;0.93;0.93;;;;;;;;;;5057616;28;20205;-59
2022/06/02 10:54:01;;;;;;;1.83;0.90;;;;;;;;;;5058669;28;20214;-59
2022/06/02 10:56:37;;;;;;;3.47;0.90;;;;;;;;;;5057448;28;20215;-59
2022/06/02 10:59:19;;;;;;;1.40;1.13;;;;;;;;;;5058808;28;20208;-59
2022/06/02 11:02:00;;;;;;;1.73;0.82;;;;;;;;;;5058583;28;20217;-60
2022/06/02 11:05:04;;;;;;;2.90;1.05;;;;;;;;;;5058393;28;20223;-60
2022/06/02 11:07:51;;;;;;;1.40;0.63;;;;;;;;;;5058490;28;20250;-60
2022/06/02 11:10:29;;;;;;;0.50;0.50;;;;;;;;;;5054984;28;20209;-60
2022/06/02 11:13:10;;;;;;;2.08;0.70;;;;;;;;;;5058713;28;20208;-60
2022/06/02 11:15:44;;;;;;;3.25;0.60;;;;;;;;;;5025166;28;20656;-61
2022/06/02 11:18:31;;;;;;;2.47;0.60;;;;;;;;;;5058449;28;20209;-60
2022/06/02 11:21:12;;;;;;;0.60;0.55;;;;;;;;;;5058756;28;20215;-60
2022/06/02 11:23:57;;;;;;;1.85;0.70;;;;;;;;;;5058168;28;20284;-61
2022/06/02 11:26:41;;;;;;;5.40;0.90;;;;;;;;;;5058499;28;20208;-61
2022/06/02 11:29:22;;;;;;;1.05;0.90;;;;;;;;;;5058033;28;20215;-61
2022/06/02 11:32:03;;;;;;;2.38;0.90;;;;;;;;;;5046031;28;20201;-61
2022/06/02 11:34:47;;;;;;;1.38;0.95;;;;;;;;;;5045154;28;20224;-60
2022/06/02 11:37:40;;;;;;;2.28;0.70;;;;;;;;;;5058521;28;20263;-61
2022/06/02 11:40:15;;;;;;;1.48;0.60;;;;;;;;;;5058233;28;20208;-61
2022/06/02 11:43:04;;;;;;;1.75;0.80;;;;;;;;;;5057953;28;20421;-60
2022/06/02 11:45:40;;;;;;;2.40;0.90;;;;;;;;;;5057860;28;20205;-60
2022/06/02 11:48:20;;;;;;;3.33;0.60;;;;;;;;;;5058007;28;20346;-60
2022/06/02 11:50:57;;;;;;;2.83;0.93;;;;;;;;;;5058435;28;20250;-60
2022/06/02 11:53:39;;;;;;;2.33;0.90;;;;;;;;;;5057855;28;20208;-59
2022/06/02 11:56:08;;;;;;;2.08;0.90;;;;;;;;;;5057664;28;20298;-59
2022/06/02 11:58:58;;;;;;;0.70;0.70;;;;;;;;;;5057890;28;20442;-59
2022/06/02 12:01:40;;;;;;;0.82;0.70;;;;;;;;;;5042261;28;20216;-60
2022/06/02 12:04:31;;;;;;;1.17;0.77;;;;;;;;;;5057353;28;20240;-59
2022/06/02 12:07:24;;;;;;;1.13;0.82;;;;;;;;;;5057360;28;20220;-59
2022/06/02 12:10:03;;;;;;;3.90;0.93;;;;;;;;;;5033058;28;20598;-58
2022/06/02 12:12:42;;;;;;;0.77;0.77;;;;;;;;;;5057580;28;20258;-59
2022/06/02 12:15:28;;;;;;;1.20;0.88;;;;;;;;;;5057791;28;20603;-59
2022/06/02 12:18:14;;;;;;;0.70;0.70;;;;;;;;;;5057287;28;20517;-59
2022/06/02 12:20:58;;;;;;;3.22;0.68;;;;;;;;;;5057926;28;20209;-61
2022/06/02 12:23:33;;;;;;;1.10;0.80;;;;;;;;;;5056844;28;20208;-60
2022/06/02 12:26:01;;;;;;;5.93;0.82;;;;;;;;;;5057296;28;20567;-59
2022/06/02 12:28:42;;;;;;;0.88;0.88;;;;;;;;;;5057113;28;20238;-61
2022/06/02 12:31:41;;;;;;;1.38;0.70;;;;;;;;;;5057548;28;20250;-61
2022/06/02 12:34:19;;;;;;;0.85;0.85;;;;;;;;;;5015220;28;20308;-60
2022/06/02 12:36:54;;;;;;;2.17;0.80;;;;;;;;;;5014808;28;20603;-61
2022/06/02 12:39:29;;;;;;;1.30;0.75;;;;;;;;;;5038535;28;20208;-60
2022/06/02 12:42:13;;;;;;;3.78;0.80;;;;;;;;;;5057012;28;20200;-62
2022/06/02 12:44:58;;;;;;;1.55;0.90;;;;;;;;;;5056625;28;20223;-62
2022/06/02 12:47:45;;;;;;;0.77;0.77;;;;;;;;;;5056721;28;20496;-62
2022/06/02 12:50:27;;;;;;;0.70;0.70;;;;;;;;;;5057024;28;20231;-60
2022/06/02 12:53:11;;;;;;;2.03;1.10;;;;;;;;;;5056860;28;20209;-59
2022/06/02 12:56:02;;;;;;;1.00;0.82;;;;;;;;;;5056487;28;20586;-60
2022/06/02 12:58:48;;;;;;;2.95;1.25;;;;;;;;;;5056993;28;20250;-63
2022/06/02 13:01:26;;;;;;;1.35;0.90;;;;;;;;;;5056811;28;20214;-61
2022/06/02 13:04:11;;;;;;;0.98;0.88;;;;;;;;;;5056172;28;20243;-61
2022/06/02 13:06:51;;;;;;;1.73;0.82;;;;;;;;;;5056601;28;20433;-61
2022/06/02 13:09:36;;;;;;;0.80;0.80;;;;;;;;;;5056779;28;20279;-61
2022/06/02 13:12:23;;;;;;;3.85;0.88;;;;;;;;;;5056390;28;20421;-61
2022/06/02 13:15:16;;;;;;;2.22;0.77;;;;;;;;;;5056343;28;20216;-61
2022/06/02 13:17:57;;;;;;;2.40;1.00;;;;;;;;;;5031915;28;20247;-69
2022/06/02 13:20:31;;;;;;;0.80;0.80;;;;;;;;;;5033511;28;20208;-69
2022/06/02 13:23:09;;;;;;;1.65;0.80;;;;;;;;;;5056575;28;20404;-69
2022/06/02 13:25:54;;;;;;;1.33;0.80;;;;;;;;;;5056033;28;20569;-69
2022/06/02 13:28:43;;;;;;;1.05;1.05;;;;;;;;;;5055660;28;20215;-69
2022/06/02 13:31:24;;;;;;;2.47;1.27;;;;;;;;;;5056179;28;20283;-69
2022/06/02 13:34:04;;;;;;;2.58;1.00;;;;;;;;;;5055931;28;20208;-69
2022/06/02 13:36:39;;;;;;;2.17;0.93;;;;;;;;;;5056250;28;20232;-69
2022/06/02 13:39:24;;;;;;;0.80;0.80;;;;;;;;;;5056323;28;20212;-69
2022/06/02 13:42:11;;;;;;;2.75;1.00;;;;;;;;;;5056707;28;20207;-69
2022/06/02 13:44:50;;;;;;;3.53;0.90;;;;;;;;;;5055786;28;20444;-69
2022/06/02 13:47:25;;;;;;;3.72;0.80;;;;;;;;;;5056182;28;20475;-69
2022/06/02 13:50:10;;;;;;;1.42;1.10;;;;;;;;;;5056511;28;20212;-69
2022/06/02 13:52:55;;;;;;;1.08;0.50;;;;;;;;;;5060152;28;20424;-69
2022/06/02 13:58:19;;;;;;;1.90;0.90;;;;;;;;;;5060045;28;20276;-70
2022/06/02 14:00:54;;;;;;;2.75;1.00;;;;;;;;;;5060500;28;20269;-69
2022/06/02 14:03:33;;;;;;;0.82;0.82;;;;;;;;;;5059856;28;20563;-69
2022/06/02 14:06:08;;;;;;;1.38;0.90;;;;;;;;;;5059466;28;20252;-69
2022/06/02 14:08:53;;;;;;;1.75;0.93;;;;;;;;;;5059981;28;20208;-69
2022/06/02 14:11:27;;;;;;;2.50;0.82;;;;;;;;;;5059691;28;20468;-69
2022/06/02 14:14:02;;;;;;;1.90;0.95;;;;;;;;;;5059377;28;20215;-69
2022/06/02 14:16:36;;;;;;;2.88;0.70;;;;;;;;;;5059055;28;20266;-69
2022/06/02 14:19:10;;;;;;;1.65;0.95;;;;;;;;;;5059502;28;20208;-69
2022/06/02 14:21:39;;;;;;;1.15;1.00;;;;;;;;;;5059491;28;20544;-69
2022/06/02 14:24:08;;;;;;;0.82;0.80;;;;;;;;;;5059291;28;20239;-69
2022/06/02 14:26:40;;;;;;;1.70;0.70;;;;;;;;;;5059094;28;20325;-69
2022/06/02 14:29:13;;;;;;;0.95;0.90;;;;;;;;;;5059458;28;20208;-69
2022/06/02 14:31:47;;;;;;;1.15;0.82;;;;;;;;;;5060026;28;20216;-70
2022/06/02 14:34:17;;;;;;;3.30;0.90;;;;;;;;;;5059414;28;20213;-70
2022/06/02 14:36:48;;;;;;;0.80;0.80;;;;;;;;;;5059263;28;20454;-68
2022/06/02 14:39:24;;;;;;;1.95;0.90;;;;;;;;;;5059552;28;20470;-70
2022/06/02 14:42:00;;;;;;;1.75;0.98;;;;;;;;;;5059118;28;20216;-69
2022/06/02 14:44:30;;;;;;;1.27;0.90;;;;;;;;;;5058945;28;20289;-69
2022/06/02 14:47:05;;;;;;;2.00;0.80;;;;;;;;;;5058879;28;20288;-69
2022/06/02 14:49:45;;;;;;;2.25;1.00;;;;;;;;;;5059270;28;20219;-69
2022/06/02 14:52:19;;;;;;;2.38;1.00;;;;;;;;;;5059025;28;20208;-70
2022/06/02 14:54:51;;;;;;;0.93;0.93;;;;;;;;;;5058697;28;20519;-70
2022/06/02 14:57:24;;;;;;;1.00;1.00;;;;;;;;;;5059095;28;20236;-69
2022/06/02 14:59:57;;;;;;;3.20;1.00;;;;;;;;;;5058951;28;20581;-68
2022/06/02 15:02:36;;;;;;;0.90;0.90;;;;;;;;;;5057597;28;20445;-68
2022/06/02 15:05:15;;;;;;;0.98;0.90;;;;;;;;;;5058552;28;20239;-68
2022/06/02 15:07:53;;;;;;;1.63;1.00;;;;;;;;;;5058542;28;20445;-68
2022/06/02 15:10:25;;;;;;;1.63;0.75;;;;;;;;;;5058837;28;20488;-69
2022/06/02 15:13:06;;;;;;;3.08;2.88;;;;;;;;;;5058596;28;20236;-69
2022/06/02 15:15:41;;;;;;;1.10;0.98;;;;;;;;;;5049818;28;20231;-69
2022/06/02 15:18:20;;;;;;;0.90;0.90;;;;;;;;;;5058579;28;20209;-68
2022/06/02 15:20:58;;;;;;;1.00;1.00;;;;;;;;;;5058774;28;20205;-68
2022/06/02 15:23:43;;;;;;;1.48;0.93;;;;;;;;;;5058459;28;20254;-68
2022/06/02 15:26:19;;;;;;;0.90;0.90;;;;;;;;;;5058332;28;20223;-69
2022/06/02 15:29:02;;;;;;;1.08;0.98;;;;;;;;;;5058735;28;20250;-70
2022/06/02 15:31:31;;;;;;;0.93;0.82;;;;;;;;;;5058894;28;20212;-69
2022/06/02 15:34:24;;;;;;;2.58;1.00;;;;;;;;;;5058120;28;20516;-69
2022/06/02 15:37:07;;;;;;;3.05;1.00;;;;;;;;;;5033241;28;20485;-69
2022/06/02 15:39:45;;;;;;;1.77;1.20;;;;;;;;;;5058530;28;20238;-70
2022/06/02 15:42:21;;;;;;;3.50;1.20;;;;;;;;;;5057983;28;20425;-68
2022/06/02 15:44:57;;;;;;;1.40;1.30;;;;;;;;;;5057715;28;20415;-68
2022/06/02 15:47:33;;;;;;;1.65;1.30;;;;;;;;;;5057892;28;20516;-69
2022/06/02 15:50:30;;;;;;;3.28;1.55;;;;;;;;;;5058212;28;20255;-69